Time;durP1;ratioP1;P1;durP2;ratioP2;P2;SDS_P1;SDS_P2;PMS_P1;PMS_P2;Temp;Humidity;BMP_temperature;BMP_pressure;BME280_temperature;BME280_humidity;BME280_pressure;Samples;Min_cycle;Max_cycle;Signal;HPM_P1;HPM_P2
2021/08/24 06:57:26;;;;;;;10.93;7.65;;;;;;;;;;6362262;22;20388;-59
2021/08/24 06:59:52;;;;;;;11.38;9.00;;;;;;;;;;6362189;22;20395;-62
2021/08/24 07:02:18;;;;;;;12.20;9.48;;;;;;;;;;6362293;22;20337;-71
2021/08/24 07:04:48;;;;;;;9.75;8.02;;;;;;;;;;6359866;22;20613;-66
2021/08/24 07:07:14;;;;;;;11.10;8.30;;;;;;;;;;6334965;22;20421;-67
2021/08/24 07:09:40;;;;;;;10.15;8.23;;;;;;;;;;6337029;22;20351;-65
2021/08/24 07:12:06;;;;;;;10.98;8.05;;;;;;;;;;6336750;22;20347;-64
2021/08/24 07:14:32;;;;;;;10.32;8.05;;;;;;;;;;6364267;22;20336;-66
2021/08/24 07:16:58;;;;;;;9.38;7.57;;;;;;;;;;6364426;22;20351;-74
2021/08/24 07:19:24;;;;;;;8.77;7.35;;;;;;;;;;6364475;22;20427;-69
2021/08/24 07:21:50;;;;;;;10.30;7.53;;;;;;;;;;6364320;22;20335;-61
2021/08/24 07:24:17;;;;;;;10.00;7.80;;;;;;;;;;6366841;22;20783;-60
2021/08/24 07:26:43;;;;;;;8.18;6.88;;;;;;;;;;6366117;22;20331;-62
2021/08/24 07:29:09;;;;;;;10.88;8.02;;;;;;;;;;6366444;22;20760;-69
2021/08/24 07:31:37;;;;;;;9.25;7.60;;;;;;;;;;6366493;22;20339;-66
2021/08/24 07:34:04;;;;;;;9.60;7.65;;;;;;;;;;6366747;22;20327;-57
2021/08/24 07:36:30;;;;;;;8.55;7.20;;;;;;;;;;6337546;22;20359;-60
2021/08/24 07:38:56;;;;;;;11.02;7.85;;;;;;;;;;6338439;22;20347;-61
2021/08/24 07:41:22;;;;;;;10.38;7.63;;;;;;;;;;6338816;22;20537;-65
2021/08/24 07:43:48;;;;;;;10.85;8.00;;;;;;;;;;6366975;22;20416;-62
2021/08/24 07:46:14;;;;;;;8.10;7.30;;;;;;;;;;6366447;22;20338;-60
2021/08/24 07:48:40;;;;;;;8.87;7.97;;;;;;;;;;6366633;22;20331;-61
2021/08/24 07:51:06;;;;;;;8.70;6.93;;;;;;;;;;6337533;22;20352;-61
2021/08/24 07:53:32;;;;;;;8.65;7.72;;;;;;;;;;6366280;22;20343;-62
2021/08/24 07:55:59;;;;;;;9.73;7.47;;;;;;;;;;6365826;22;20447;-60
2021/08/24 07:58:25;;;;;;;10.02;7.38;;;;;;;;;;6366363;22;20434;-61
2021/08/24 08:00:51;;;;;;;9.27;7.32;;;;;;;;;;6366096;22;20465;-62
2021/08/24 08:03:20;;;;;;;8.27;7.40;;;;;;;;;;6366503;22;20343;-63
2021/08/24 08:05:46;;;;;;;9.73;7.60;;;;;;;;;;6365595;22;20327;-57
2021/08/24 08:08:12;;;;;;;11.23;9.98;;;;;;;;;;6365938;22;20423;-58
2021/08/24 08:10:39;;;;;;;12.48;10.75;;;;;;;;;;6366144;22;20410;-61
2021/08/24 08:13:05;;;;;;;14.50;11.65;;;;;;;;;;6366116;22;20331;-59
2021/08/24 08:15:33;;;;;;;14.38;11.68;;;;;;;;;;6338008;22;20370;-56
2021/08/24 08:18:02;;;;;;;14.13;11.98;;;;;;;;;;6365446;22;20414;-56
2021/08/24 08:20:28;;;;;;;16.45;12.52;;;;;;;;;;6365536;22;20468;-64
2021/08/24 08:22:54;;;;;;;15.15;12.73;;;;;;;;;;6365283;22;20335;-67
2021/08/24 08:25:20;;;;;;;14.50;12.68;;;;;;;;;;6365079;22;20752;-59
2021/08/24 08:27:46;;;;;;;15.30;12.80;;;;;;;;;;6365677;22;20319;-69
2021/08/24 08:30:13;;;;;;;16.25;13.00;;;;;;;;;;6365383;22;20416;-68
2021/08/24 08:32:42;;;;;;;17.03;14.27;;;;;;;;;;6365799;22;20348;-70
2021/08/24 08:35:09;;;;;;;17.15;14.15;;;;;;;;;;6334913;22;20343;-70
2021/08/24 08:37:35;;;;;;;17.73;14.13;;;;;;;;;;6365190;22;20402;-72
2021/08/24 08:40:02;;;;;;;18.58;14.55;;;;;;;;;;6366034;22;20444;-74
2021/08/24 08:42:30;;;;;;;17.17;14.40;;;;;;;;;;6364781;22;20339;-62
2021/08/24 08:45:05;;;;;;;18.20;14.43;;;;;;;;;;6366181;22;20332;-69
2021/08/24 08:47:37;;;;;;;16.10;13.90;;;;;;;;;;6337904;22;20381;-63
2021/08/24 08:50:03;;;;;;;16.27;13.73;;;;;;;;;;6365956;22;20335;-67
2021/08/24 08:52:29;;;;;;;17.92;14.05;;;;;;;;;;6337174;22;20460;-65
2021/08/24 08:55:11;;;;;;;16.15;13.30;;;;;;;;;;6364621;22;20395;-68
2021/08/24 08:57:40;;;;;;;17.52;13.63;;;;;;;;;;6365991;22;20815;-66
2021/08/24 09:00:15;;;;;;;15.40;12.95;;;;;;;;;;6337480;22;20405;-67
2021/08/24 09:02:49;;;;;;;15.03;13.17;;;;;;;;;;6363552;22;20730;-73
2021/08/24 09:05:18;;;;;;;15.10;13.07;;;;;;;;;;6365547;22;20669;-69
2021/08/24 09:07:55;;;;;;;15.03;12.70;;;;;;;;;;6365315;22;20334;-65
2021/08/24 09:10:33;;;;;;;13.98;11.88;;;;;;;;;;6336734;22;20336;-70
2021/08/24 09:13:01;;;;;;;13.23;11.85;;;;;;;;;;6336882;22;20350;-65
2021/08/24 09:15:49;;;;;;;13.50;12.10;;;;;;;;;;6364508;22;20327;-62
2021/08/24 09:18:18;;;;;;;17.15;13.98;;;;;;;;;;6365129;22;20320;-65
2021/08/24 09:20:48;;;;;;;17.95;14.80;;;;;;;;;;6365029;22;20919;-71
2021/08/24 09:23:14;;;;;;;16.85;14.80;;;;;;;;;;6365169;22;20332;-69
2021/08/24 09:25:49;;;;;;;18.27;14.85;;;;;;;;;;6365261;22;20324;-73
2021/08/24 09:28:29;;;;;;;17.33;14.57;;;;;;;;;;6364720;22;20629;-66
2021/08/24 09:30:56;;;;;;;15.93;14.13;;;;;;;;;;6336864;22;20358;-62
2021/08/24 09:33:22;;;;;;;16.98;14.25;;;;;;;;;;6337124;22;20347;-66
2021/08/24 09:35:48;;;;;;;16.35;14.45;;;;;;;;;;6336140;22;20347;-68
2021/08/24 09:38:16;;;;;;;16.30;13.98;;;;;;;;;;6364868;22;20422;-64
2021/08/24 09:40:45;;;;;;;16.38;14.55;;;;;;;;;;6337623;22;20417;-56
2021/08/24 09:43:32;;;;;;;18.13;14.90;;;;;;;;;;6365873;22;20328;-55
2021/08/24 09:45:58;;;;;;;17.30;14.83;;;;;;;;;;6337449;22;20852;-56
2021/08/24 09:48:25;;;;;;;18.33;14.63;;;;;;;;;;6363661;22;20339;-60
2021/08/24 09:50:52;;;;;;;17.30;14.87;;;;;;;;;;6336584;22;20687;-58
2021/08/24 09:53:30;;;;;;;16.15;14.05;;;;;;;;;;6365892;22;20415;-57
2021/08/24 09:55:56;;;;;;;19.17;15.10;;;;;;;;;;6365266;22;20539;-61
2021/08/24 09:58:31;;;;;;;18.13;15.70;;;;;;;;;;6364080;22;20351;-63
2021/08/24 10:01:02;;;;;;;45.80;30.92;;;;;;;;;;6365691;22;20452;-59
2021/08/24 10:03:34;;;;;;;66.83;42.30;;;;;;;;;;6364939;22;20355;-50
2021/08/24 10:06:06;;;;;;;125.88;75.07;;;;;;;;;;6363159;22;20327;-50
2021/08/24 10:08:35;;;;;;;149.27;88.55;;;;;;;;;;6363548;22;20335;-49
2021/08/24 10:11:03;;;;;;;194.00;112.05;;;;;;;;;;6363991;22;20331;-50
2021/08/24 10:13:34;;;;;;;198.18;121.43;;;;;;;;;;6363460;22;20446;-49
2021/08/24 10:16:05;;;;;;;186.55;115.53;;;;;;;;;;6364815;22;20326;-48
2021/08/24 10:18:33;;;;;;;154.85;99.35;;;;;;;;;;6364398;22;20327;-50
2021/08/24 10:21:05;;;;;;;126.88;83.35;;;;;;;;;;6363991;22;20375;-48
2021/08/24 10:23:34;;;;;;;118.47;76.47;;;;;;;;;;6363891;22;20413;-48
2021/08/24 10:26:21;;;;;;;110.72;67.25;;;;;;;;;;6362611;22;20603;-47
2021/08/24 10:28:52;;;;;;;95.13;57.50;;;;;;;;;;6362566;22;20664;-48
2021/08/24 10:31:38;;;;;;;75.90;49.38;;;;;;;;;;6362362;22;20398;-48
2021/08/24 10:34:07;;;;;;;64.78;42.60;;;;;;;;;;6363084;22;20328;-48
2021/08/24 10:36:59;;;;;;;59.45;40.25;;;;;;;;;;6363729;22;20411;-49
2021/08/24 10:39:29;;;;;;;59.85;39.13;;;;;;;;;;6304574;22;20394;-48
2021/08/24 10:42:04;;;;;;;50.92;35.88;;;;;;;;;;6362521;22;20347;-48
2021/08/24 10:44:41;;;;;;;48.15;32.80;;;;;;;;;;6364235;22;20348;-47
2021/08/24 10:47:17;;;;;;;42.42;29.98;;;;;;;;;;6364148;22;20323;-46
2021/08/24 10:49:43;;;;;;;38.42;27.58;;;;;;;;;;6364078;22;20362;-48
2021/08/24 10:52:09;;;;;;;36.60;27.43;;;;;;;;;;6363625;22;20327;-49
2021/08/24 10:54:42;;;;;;;38.80;27.77;;;;;;;;;;6363730;22;20608;-52
2021/08/24 10:57:23;;;;;;;39.67;27.55;;;;;;;;;;6363737;22;20367;-46
2021/08/24 10:59:49;;;;;;;34.90;26.17;;;;;;;;;;6363890;22;20432;-51
2021/08/24 11:02:21;;;;;;;35.97;24.83;;;;;;;;;;6364239;22;20392;-48
2021/08/24 11:05:03;;;;;;;33.50;24.00;;;;;;;;;;6364147;22;20386;-53
2021/08/24 11:07:29;;;;;;;33.72;23.92;;;;;;;;;;6364268;22;20468;-49
2021/08/24 11:09:58;;;;;;;35.67;23.42;;;;;;;;;;6363855;22;21124;-52
2021/08/24 11:12:24;;;;;;;28.83;22.20;;;;;;;;;;6364137;22;20727;-50
2021/08/24 11:14:50;;;;;;;29.13;22.25;;;;;;;;;;6363957;22;20433;-51
2021/08/24 11:17:28;;;;;;;27.30;20.73;;;;;;;;;;6363394;22;20342;-50
2021/08/24 11:20:10;;;;;;;26.92;19.88;;;;;;;;;;6364053;22;20363;-51
2021/08/24 11:22:55;;;;;;;24.73;19.40;;;;;;;;;;6335995;22;20409;-48
2021/08/24 11:25:32;;;;;;;24.90;18.65;;;;;;;;;;6363451;22;20365;-50
2021/08/24 11:27:59;;;;;;;23.10;18.92;;;;;;;;;;6335824;22;20339;-49
2021/08/24 11:30:42;;;;;;;22.52;18.17;;;;;;;;;;6362993;22;20343;-48
2021/08/24 11:33:15;;;;;;;22.83;17.50;;;;;;;;;;6363140;22;20438;-48
2021/08/24 11:35:41;;;;;;;20.85;16.92;;;;;;;;;;6362524;22;20497;-49
2021/08/24 11:38:10;;;;;;;21.52;16.42;;;;;;;;;;6363150;22;20396;-49
2021/08/24 11:40:42;;;;;;;20.55;16.98;;;;;;;;;;6363087;22;20379;-50
2021/08/24 11:43:13;;;;;;;21.13;16.95;;;;;;;;;;6363225;22;20771;-49
2021/08/24 11:45:44;;;;;;;19.80;16.43;;;;;;;;;;6363731;22;20604;-51
2021/08/24 11:48:23;;;;;;;20.27;16.10;;;;;;;;;;6362741;22;20328;-52
2021/08/24 11:50:57;;;;;;;20.23;15.88;;;;;;;;;;6362813;22;20418;-49
2021/08/24 11:53:27;;;;;;;19.48;15.68;;;;;;;;;;6364197;22;20335;-52
2021/08/24 11:55:56;;;;;;;18.08;15.68;;;;;;;;;;6363930;22;20519;-52
2021/08/24 11:58:22;;;;;;;18.23;15.43;;;;;;;;;;6363879;22;20351;-49
2021/08/24 12:01:01;;;;;;;18.10;15.23;;;;;;;;;;6363895;22;20367;-52
2021/08/24 12:03:27;;;;;;;19.05;15.18;;;;;;;;;;6336981;22;20336;-53
2021/08/24 12:05:53;;;;;;;18.95;14.70;;;;;;;;;;6364486;22;20334;-51
2021/08/24 12:08:22;;;;;;;17.02;15.05;;;;;;;;;;6364476;22;20343;-51
2021/08/24 12:10:50;;;;;;;18.75;15.25;;;;;;;;;;6365902;22;20361;-52
2021/08/24 12:13:43;;;;;;;17.15;13.98;;;;;;;;;;6366459;22;20438;-51
2021/08/24 12:16:18;;;;;;;18.88;14.52;;;;;;;;;;6358537;22;20411;-54
2021/08/24 12:18:45;;;;;;;16.30;14.60;;;;;;;;;;6366495;22;20332;-52
2021/08/24 12:21:30;;;;;;;15.50;13.73;;;;;;;;;;6365391;22;20382;-52
2021/08/24 12:23:58;;;;;;;18.23;13.83;;;;;;;;;;6365692;22;20423;-49
2021/08/24 12:26:24;;;;;;;16.60;14.15;;;;;;;;;;6365997;22;20342;-49
2021/08/24 12:28:50;;;;;;;15.50;13.50;;;;;;;;;;6365999;22;20338;-49
2021/08/24 12:31:25;;;;;;;17.38;13.50;;;;;;;;;;6365485;22;20427;-49
2021/08/24 12:33:51;;;;;;;15.98;13.57;;;;;;;;;;6365288;22;20337;-48
2021/08/24 12:36:17;;;;;;;15.45;12.82;;;;;;;;;;6365597;22;20335;-48
2021/08/24 12:38:57;;;;;;;16.55;13.23;;;;;;;;;;6365658;22;20347;-49
2021/08/24 12:41:32;;;;;;;15.10;13.35;;;;;;;;;;6364765;22;20462;-49
2021/08/24 12:44:10;;;;;;;15.25;13.38;;;;;;;;;;6366038;22;20328;-48
2021/08/24 12:46:37;;;;;;;19.08;13.38;;;;;;;;;;6366075;22;20328;-49
2021/08/24 12:49:19;;;;;;;14.30;12.82;;;;;;;;;;6365149;22;20335;-48
2021/08/24 12:51:46;;;;;;;14.43;12.93;;;;;;;;;;6365004;22;20336;-51
2021/08/24 12:54:15;;;;;;;14.88;11.90;;;;;;;;;;6365800;22;20339;-50
2021/08/24 12:56:46;;;;;;;12.35;11.00;;;;;;;;;;6365372;22;20415;-52
2021/08/24 12:59:27;;;;;;;12.88;10.73;;;;;;;;;;6365706;22;20431;-53
2021/08/24 13:02:11;;;;;;;12.13;10.85;;;;;;;;;;6365266;22;20323;-54
2021/08/24 13:04:38;;;;;;;11.10;9.88;;;;;;;;;;6365954;22;20807;-52
2021/08/24 13:07:15;;;;;;;10.40;9.07;;;;;;;;;;6365032;22;20331;-54
2021/08/24 13:09:42;;;;;;;9.98;9.00;;;;;;;;;;6364814;22;20346;-50
2021/08/24 13:12:18;;;;;;;9.90;8.75;;;;;;;;;;6363824;22;20364;-53
2021/08/24 13:14:56;;;;;;;7.88;6.97;;;;;;;;;;6363910;22;20346;-57
2021/08/24 13:17:30;;;;;;;8.30;7.50;;;;;;;;;;6365196;22;20392;-56
2021/08/24 13:19:57;;;;;;;8.45;7.55;;;;;;;;;;6364880;22;20806;-59
2021/08/24 13:22:29;;;;;;;8.13;7.32;;;;;;;;;;6363519;22;20856;-52
2021/08/24 13:24:58;;;;;;;8.10;7.28;;;;;;;;;;6365747;22;20339;-56
2021/08/24 13:27:35;;;;;;;8.30;7.13;;;;;;;;;;6365696;22;20415;-53
2021/08/24 13:30:06;;;;;;;7.70;6.90;;;;;;;;;;6365593;22;20339;-51
2021/08/24 13:32:37;;;;;;;7.82;6.60;;;;;;;;;;6364848;22;20331;-58
2021/08/24 13:35:04;;;;;;;7.13;6.43;;;;;;;;;;6364765;22;20339;-55
2021/08/24 13:37:40;;;;;;;7.30;6.55;;;;;;;;;;6365077;22;20331;-53
2021/08/24 13:40:09;;;;;;;6.65;5.97;;;;;;;;;;6365236;22;20465;-51
2021/08/24 13:42:38;;;;;;;8.07;6.15;;;;;;;;;;6365027;22;20718;-54
2021/08/24 13:45:05;;;;;;;6.57;5.88;;;;;;;;;;6365782;22;20359;-54
2021/08/24 13:47:32;;;;;;;6.85;5.72;;;;;;;;;;6365037;22;20400;-54
2021/08/24 13:50:00;;;;;;;7.90;5.95;;;;;;;;;;6337034;22;21491;-53
2021/08/24 13:52:44;;;;;;;6.03;5.43;;;;;;;;;;6365057;22;20439;-53
2021/08/24 13:55:25;;;;;;;5.97;5.37;;;;;;;;;;6365364;22;20343;-53
2021/08/24 13:57:54;;;;;;;6.47;5.32;;;;;;;;;;6365348;22;20366;-52
2021/08/24 14:00:22;;;;;;;6.47;5.25;;;;;;;;;;6364956;22;20420;-53
2021/08/24 14:02:51;;;;;;;6.05;5.10;;;;;;;;;;6364973;22;20424;-52
2021/08/24 14:05:19;;;;;;;6.00;5.00;;;;;;;;;;6365215;22;20343;-54
2021/08/24 14:07:51;;;;;;;6.50;5.00;;;;;;;;;;6365247;22;20613;-53
2021/08/24 14:10:25;;;;;;;6.45;5.30;;;;;;;;;;6364473;22;20741;-48
2021/08/24 14:12:57;;;;;;;5.85;4.95;;;;;;;;;;6364863;22;20365;-51
2021/08/24 14:15:28;;;;;;;8.07;5.03;;;;;;;;;;6365476;22;20365;-53
2021/08/24 14:17:56;;;;;;;5.03;4.50;;;;;;;;;;6337655;22;20408;-52
2021/08/24 14:20:24;;;;;;;5.03;4.38;;;;;;;;;;6364873;22;20656;-48
2021/08/24 14:22:57;;;;;;;5.60;4.50;;;;;;;;;;6364845;22;20331;-51
2021/08/24 14:25:25;;;;;;;5.57;4.50;;;;;;;;;;6364571;22;20352;-51
2021/08/24 14:27:52;;;;;;;5.72;4.40;;;;;;;;;;6364770;22;20379;-53
2021/08/24 14:30:19;;;;;;;5.97;4.68;;;;;;;;;;6364046;22;20363;-52
2021/08/24 14:32:46;;;;;;;5.20;4.45;;;;;;;;;;6363445;22;20323;-51
2021/08/24 14:35:32;;;;;;;5.97;4.60;;;;;;;;;;6364595;22;20401;-48
2021/08/24 14:37:58;;;;;;;5.18;4.13;;;;;;;;;;6363921;22;20343;-49
2021/08/24 14:40:28;;;;;;;5.00;3.90;;;;;;;;;;6364377;22;20378;-53
2021/08/24 14:43:02;;;;;;;5.40;4.40;;;;;;;;;;6364258;22;20331;-50
2021/08/24 14:45:30;;;;;;;6.38;4.30;;;;;;;;;;6362046;22;20343;-53
2021/08/24 14:48:06;;;;;;;5.32;4.28;;;;;;;;;;6365661;22;20395;-54
2021/08/24 14:50:35;;;;;;;4.72;3.88;;;;;;;;;;6365370;22;20446;-54
2021/08/24 14:53:02;;;;;;;5.13;3.97;;;;;;;;;;6363674;22;20347;-54
2021/08/24 14:55:30;;;;;;;4.80;3.93;;;;;;;;;;6364647;22;20771;-53
2021/08/24 14:57:56;;;;;;;6.03;4.00;;;;;;;;;;6336780;22;20378;-53
2021/08/24 15:00:25;;;;;;;5.57;3.90;;;;;;;;;;6364511;22;20390;-53
2021/08/24 15:03:02;;;;;;;4.35;3.78;;;;;;;;;;6364814;22;20382;-53
2021/08/24 15:05:34;;;;;;;4.60;4.00;;;;;;;;;;6364322;22;20331;-54
2021/08/24 15:08:04;;;;;;;4.28;3.67;;;;;;;;;;6363908;22;20667;-53
2021/08/24 15:10:30;;;;;;;4.47;3.70;;;;;;;;;;6364504;22;20343;-49
2021/08/24 15:12:57;;;;;;;4.53;3.80;;;;;;;;;;6336343;22;20363;-53
2021/08/24 15:15:31;;;;;;;5.13;3.80;;;;;;;;;;6363805;22;20362;-58
2021/08/24 15:17:58;;;;;;;4.30;3.60;;;;;;;;;;6363642;22;20472;-50
2021/08/24 15:20:26;;;;;;;5.65;3.53;;;;;;;;;;6363683;22;20465;-52
2021/08/24 15:22:54;;;;;;;5.63;4.00;;;;;;;;;;6363357;22;20331;-51
2021/08/24 15:25:23;;;;;;;4.45;3.80;;;;;;;;;;6363463;22;20800;-53
2021/08/24 15:27:52;;;;;;;4.97;3.47;;;;;;;;;;6363512;22;20774;-51
2021/08/24 15:30:21;;;;;;;4.55;3.40;;;;;;;;;;6364216;22;20813;-52
2021/08/24 15:33:11;;;;;;;4.00;3.58;;;;;;;;;;6363594;22;20430;-48
2021/08/24 15:35:45;;;;;;;5.68;3.88;;;;;;;;;;6257396;22;20995;-50
2021/08/24 15:38:13;;;;;;;4.57;3.85;;;;;;;;;;6361246;22;20412;-53
2021/08/24 15:40:46;;;;;;;5.22;3.80;;;;;;;;;;6364306;22;20424;-51
2021/08/24 15:43:27;;;;;;;4.88;4.10;;;;;;;;;;6365616;22;20323;-49
2021/08/24 15:45:59;;;;;;;5.35;4.07;;;;;;;;;;6366265;22;20365;-50
2021/08/24 15:48:26;;;;;;;4.95;3.92;;;;;;;;;;6364943;22;20404;-51
2021/08/24 15:50:53;;;;;;;4.60;3.65;;;;;;;;;;6363189;22;20340;-51
2021/08/24 15:53:19;;;;;;;4.13;3.65;;;;;;;;;;6366401;22;20335;-50
2021/08/24 15:55:50;;;;;;;5.03;3.60;;;;;;;;;;6366231;22;20408;-50
2021/08/24 15:58:21;;;;;;;5.30;3.95;;;;;;;;;;6366683;22;20402;-50
2021/08/24 16:00:50;;;;;;;4.88;4.00;;;;;;;;;;6366543;22;20764;-49
2021/08/24 16:03:18;;;;;;;4.93;3.88;;;;;;;;;;6366239;22;20339;-51
2021/08/24 16:05:45;;;;;;;4.72;3.70;;;;;;;;;;6365733;22;20400;-51
2021/08/24 16:08:11;;;;;;;5.87;4.07;;;;;;;;;;6366070;22;20655;-49
2021/08/24 16:10:39;;;;;;;4.03;3.60;;;;;;;;;;6366064;22;20338;-49
2021/08/24 16:13:07;;;;;;;4.93;3.92;;;;;;;;;;6337660;22;20756;-51
2021/08/24 16:15:36;;;;;;;4.88;3.90;;;;;;;;;;6365950;22;20380;-53
2021/08/24 16:18:04;;;;;;;4.70;4.20;;;;;;;;;;6365965;22;20339;-53
2021/08/24 16:20:30;;;;;;;4.75;3.83;;;;;;;;;;6365749;22;20819;-51
2021/08/24 16:23:02;;;;;;;5.15;3.90;;;;;;;;;;6337739;22;20347;-51
2021/08/24 16:25:32;;;;;;;5.88;3.83;;;;;;;;;;6366620;22;20818;-52
2021/08/24 16:28:01;;;;;;;4.93;4.00;;;;;;;;;;6365291;22;20334;-53
2021/08/24 16:30:32;;;;;;;5.80;4.00;;;;;;;;;;6365074;22;20331;-55
2021/08/24 16:32:58;;;;;;;5.07;3.72;;;;;;;;;;6365088;22;20353;-54
2021/08/24 16:35:29;;;;;;;4.65;3.67;;;;;;;;;;6365514;22;20466;-50
2021/08/24 16:37:56;;;;;;;4.40;3.85;;;;;;;;;;6365304;22;20411;-52
2021/08/24 16:40:24;;;;;;;4.40;3.70;;;;;;;;;;6337071;22;20383;-51
2021/08/24 16:42:51;;;;;;;4.78;3.67;;;;;;;;;;6365043;22;20326;-54
2021/08/24 16:45:19;;;;;;;4.82;3.88;;;;;;;;;;6364879;22;20331;-55
2021/08/24 16:47:49;;;;;;;6.10;3.85;;;;;;;;;;6365002;22;20780;-51
2021/08/24 16:50:16;;;;;;;5.95;3.90;;;;;;;;;;6335731;22;20413;-50
2021/08/24 16:52:42;;;;;;;4.38;3.72;;;;;;;;;;6365130;22;20324;-51
2021/08/24 16:55:09;;;;;;;4.63;3.70;;;;;;;;;;6365040;22;20339;-53
2021/08/24 16:57:35;;;;;;;4.53;3.60;;;;;;;;;;6363762;22;20359;-50
2021/08/24 17:00:01;;;;;;;4.47;3.80;;;;;;;;;;6365333;22;20371;-51
2021/08/24 17:02:30;;;;;;;4.10;3.70;;;;;;;;;;6365051;22;20332;-50
2021/08/24 17:04:59;;;;;;;6.43;3.90;;;;;;;;;;6335760;22;20351;-51
2021/08/24 17:07:25;;;;;;;5.22;4.00;;;;;;;;;;6364297;22;20331;-51
2021/08/24 17:09:52;;;;;;;4.55;3.75;;;;;;;;;;6365052;22;20506;-51
2021/08/24 17:12:20;;;;;;;4.32;3.50;;;;;;;;;;6336666;22;20355;-54
2021/08/24 17:14:46;;;;;;;5.13;3.60;;;;;;;;;;6366163;22;20682;-50
2021/08/24 17:17:13;;;;;;;3.90;3.50;;;;;;;;;;6365358;22;20339;-52
2021/08/24 17:19:39;;;;;;;5.70;3.70;;;;;;;;;;6311525;22;20383;-52
2021/08/24 17:22:08;;;;;;;4.05;3.42;;;;;;;;;;6366188;22;20740;-51
2021/08/24 17:24:34;;;;;;;5.35;3.85;;;;;;;;;;6365592;22;20369;-50
2021/08/24 17:27:00;;;;;;;4.85;3.65;;;;;;;;;;6364245;22;20782;-51
2021/08/24 17:29:27;;;;;;;4.75;3.55;;;;;;;;;;6362089;22;20337;-54
2021/08/24 17:31:53;;;;;;;4.38;3.40;;;;;;;;;;6334101;22;20366;-50
2021/08/24 17:34:22;;;;;;;3.85;3.30;;;;;;;;;;6362501;22;20338;-52
2021/08/24 17:36:49;;;;;;;4.95;3.67;;;;;;;;;;6363109;22;20327;-50
2021/08/24 17:39:17;;;;;;;5.00;3.60;;;;;;;;;;6362423;22;20783;-51
2021/08/24 17:41:43;;;;;;;4.35;3.28;;;;;;;;;;6364825;22;20382;-50
2021/08/24 17:44:10;;;;;;;3.78;3.30;;;;;;;;;;6365194;22;20342;-49
2021/08/24 17:46:37;;;;;;;3.72;3.28;;;;;;;;;;6365363;22;20347;-50
2021/08/24 17:49:08;;;;;;;4.40;3.60;;;;;;;;;;6364985;22;20346;-49
2021/08/24 17:51:37;;;;;;;3.90;3.22;;;;;;;;;;6365046;22;20398;-51
2021/08/24 17:54:04;;;;;;;3.88;3.17;;;;;;;;;;6364708;22;20378;-53
2021/08/24 17:56:31;;;;;;;4.45;3.28;;;;;;;;;;6364278;22;20436;-55
2021/08/24 17:58:57;;;;;;;4.35;3.25;;;;;;;;;;6364576;22;20400;-53
2021/08/24 18:01:24;;;;;;;3.85;3.20;;;;;;;;;;6365067;22;20680;-50
2021/08/24 18:03:50;;;;;;;4.45;3.30;;;;;;;;;;6364759;22;20418;-49
2021/08/24 18:06:24;;;;;;;3.92;3.20;;;;;;;;;;6364385;22;20354;-51
2021/08/24 18:08:51;;;;;;;3.33;2.92;;;;;;;;;;6364730;22;20343;-50
2021/08/24 18:11:18;;;;;;;4.20;3.10;;;;;;;;;;6336488;22;20454;-51
2021/08/24 18:13:47;;;;;;;4.40;3.40;;;;;;;;;;6364956;22;20659;-51
2021/08/24 18:16:14;;;;;;;4.10;3.00;;;;;;;;;;6364214;22;20759;-49
2021/08/24 18:18:40;;;;;;;4.10;2.80;;;;;;;;;;6364717;22;20621;-51
2021/08/24 18:21:06;;;;;;;4.20;2.85;;;;;;;;;;6365239;22;20375;-50
2021/08/24 18:23:32;;;;;;;4.43;3.20;;;;;;;;;;6364641;22;20853;-50
2021/08/24 18:25:58;;;;;;;4.10;3.03;;;;;;;;;;6365218;22;20324;-51
2021/08/24 18:28:24;;;;;;;4.40;2.92;;;;;;;;;;6365332;22;20427;-50
2021/08/24 18:30:51;;;;;;;3.53;2.90;;;;;;;;;;6365210;22;20327;-50
2021/08/24 18:33:17;;;;;;;3.50;3.00;;;;;;;;;;6364794;22;20396;-50
2021/08/24 18:35:49;;;;;;;3.63;2.88;;;;;;;;;;6364786;22;20405;-50
2021/08/24 18:38:15;;;;;;;3.75;3.00;;;;;;;;;;6363654;22;20331;-51
2021/08/24 18:40:44;;;;;;;3.97;2.80;;;;;;;;;;6364491;22;20363;-54
2021/08/24 18:43:11;;;;;;;3.67;2.90;;;;;;;;;;6364218;22;20366;-53
2021/08/24 18:45:41;;;;;;;4.18;3.08;;;;;;;;;;6364386;22;20336;-54
2021/08/24 18:48:10;;;;;;;4.47;3.08;;;;;;;;;;6363415;22;20342;-48
2021/08/24 18:50:37;;;;;;;4.53;3.17;;;;;;;;;;6364107;22;20659;-54
2021/08/24 18:53:04;;;;;;;3.33;3.00;;;;;;;;;;6336338;22;20426;-49
2021/08/24 18:55:39;;;;;;;3.83;3.35;;;;;;;;;;6364625;22;20347;-50
2021/08/24 18:58:14;;;;;;;3.97;2.90;;;;;;;;;;6363873;22;20381;-50
2021/08/24 19:00:46;;;;;;;4.00;3.22;;;;;;;;;;6364240;22;20394;-50
2021/08/24 19:03:12;;;;;;;4.18;3.30;;;;;;;;;;6335555;22;20791;-51
2021/08/24 19:05:38;;;;;;;4.05;3.13;;;;;;;;;;6365162;22;20347;-51
2021/08/24 19:08:08;;;;;;;4.38;3.17;;;;;;;;;;6365375;22;20655;-50
2021/08/24 19:10:34;;;;;;;3.58;3.20;;;;;;;;;;6365289;22;20713;-51
2021/08/24 19:13:00;;;;;;;3.67;3.25;;;;;;;;;;6364969;22;20636;-50
2021/08/24 19:15:32;;;;;;;5.15;3.50;;;;;;;;;;6336201;22;20362;-50
2021/08/24 19:17:59;;;;;;;4.55;3.60;;;;;;;;;;6363847;22;20732;-51
2021/08/24 19:20:25;;;;;;;4.50;3.70;;;;;;;;;;6365899;22;20811;-50
2021/08/24 19:22:51;;;;;;;4.45;3.88;;;;;;;;;;6366320;22;20400;-52
2021/08/24 19:25:21;;;;;;;6.05;3.70;;;;;;;;;;6366673;22;20715;-50
2021/08/24 19:27:50;;;;;;;4.70;3.60;;;;;;;;;;6366934;22;20396;-52
2021/08/24 19:30:17;;;;;;;4.90;3.95;;;;;;;;;;6366256;22;20328;-51
2021/08/24 19:32:43;;;;;;;5.88;3.90;;;;;;;;;;6366547;22;20330;-50
2021/08/24 19:35:09;;;;;;;6.13;4.00;;;;;;;;;;6366977;22;20349;-50
2021/08/24 19:37:35;;;;;;;4.82;3.78;;;;;;;;;;6366465;22;20327;-50
2021/08/24 19:40:03;;;;;;;5.00;3.95;;;;;;;;;;6366302;22;20367;-50
2021/08/24 19:42:33;;;;;;;4.85;3.80;;;;;;;;;;6365835;22;20369;-49
2021/08/24 19:44:59;;;;;;;4.15;3.50;;;;;;;;;;6336884;22;20803;-50
2021/08/24 19:47:25;;;;;;;5.35;3.60;;;;;;;;;;6365290;22;20528;-53
2021/08/24 19:49:51;;;;;;;5.13;3.63;;;;;;;;;;6337589;22;20347;-54
2021/08/24 19:52:18;;;;;;;5.80;3.80;;;;;;;;;;6365625;22;20360;-52
2021/08/24 19:54:48;;;;;;;4.65;3.60;;;;;;;;;;6365493;22;20429;-54
2021/08/24 19:57:14;;;;;;;5.60;3.97;;;;;;;;;;6365390;22;20367;-54
2021/08/24 19:59:40;;;;;;;5.35;3.60;;;;;;;;;;6366005;22;20371;-50
2021/08/24 20:02:06;;;;;;;6.18;3.90;;;;;;;;;;6365310;22;20374;-50
2021/08/24 20:04:32;;;;;;;5.80;3.70;;;;;;;;;;6366199;22;20664;-50
2021/08/24 20:06:58;;;;;;;5.60;3.75;;;;;;;;;;6365563;22;20359;-49
2021/08/24 20:09:24;;;;;;;5.43;3.58;;;;;;;;;;6365282;22;20372;-53
2021/08/24 20:11:51;;;;;;;5.80;3.90;;;;;;;;;;6365416;22;20332;-52
2021/08/24 20:14:19;;;;;;;6.00;3.80;;;;;;;;;;6364922;22;20740;-53
2021/08/24 20:16:48;;;;;;;6.00;3.70;;;;;;;;;;6365145;22;20357;-51
2021/08/24 20:19:14;;;;;;;5.90;3.83;;;;;;;;;;6365250;22;20972;-50
2021/08/24 20:21:41;;;;;;;6.10;3.90;;;;;;;;;;6365053;22;20516;-51
2021/08/24 20:24:12;;;;;;;5.73;3.60;;;;;;;;;;6364746;22;20332;-51
2021/08/24 20:26:38;;;;;;;5.70;3.55;;;;;;;;;;6365132;22;20742;-52
2021/08/24 20:29:06;;;;;;;5.50;3.50;;;;;;;;;;6363598;22;20683;-53
2021/08/24 20:31:32;;;;;;;5.55;3.72;;;;;;;;;;6364843;22;20435;-50
2021/08/24 20:34:01;;;;;;;6.80;3.97;;;;;;;;;;6364412;22;20327;-50
2021/08/24 20:36:34;;;;;;;6.43;3.80;;;;;;;;;;6365233;22;20427;-52
2021/08/24 20:39:09;;;;;;;6.43;3.70;;;;;;;;;;6365715;22;20648;-48
2021/08/24 20:41:38;;;;;;;6.13;3.90;;;;;;;;;;6365881;22;20369;-51
2021/08/24 20:44:07;;;;;;;6.90;3.67;;;;;;;;;;6365606;22;20395;-51
2021/08/24 20:46:33;;;;;;;7.40;3.90;;;;;;;;;;6366218;22;20328;-49
2021/08/24 20:48:59;;;;;;;5.18;3.40;;;;;;;;;;6365763;22;20350;-51
2021/08/24 20:51:25;;;;;;;6.13;3.58;;;;;;;;;;6366036;22;20319;-49
2021/08/24 20:53:54;;;;;;;6.15;3.75;;;;;;;;;;6365442;22;20339;-50
2021/08/24 20:56:20;;;;;;;5.00;3.30;;;;;;;;;;6365785;22;20355;-49
2021/08/24 20:58:50;;;;;;;6.47;3.50;;;;;;;;;;6365158;22;20383;-49
2021/08/24 21:01:32;;;;;;;5.80;3.42;;;;;;;;;;6365444;22;20469;-50
2021/08/24 21:03:59;;;;;;;5.70;3.50;;;;;;;;;;6337512;22;20344;-50
2021/08/24 21:06:28;;;;;;;5.88;3.60;;;;;;;;;;6364942;22;20323;-50
2021/08/24 21:08:54;;;;;;;5.28;3.40;;;;;;;;;;6365644;22;20351;-49
2021/08/24 21:11:20;;;;;;;5.65;3.63;;;;;;;;;;6365275;22;20696;-50
2021/08/24 21:13:51;;;;;;;4.80;3.47;;;;;;;;;;6365974;22;20324;-50
2021/08/24 21:16:17;;;;;;;5.43;3.47;;;;;;;;;;6364514;22;20331;-52
2021/08/24 21:18:43;;;;;;;5.30;3.40;;;;;;;;;;6365665;22;20659;-48
2021/08/24 21:21:10;;;;;;;5.38;3.53;;;;;;;;;;6365787;22;20662;-49
2021/08/24 21:23:36;;;;;;;5.40;3.40;;;;;;;;;;6364918;22;20365;-49
2021/08/24 21:26:03;;;;;;;5.55;3.40;;;;;;;;;;6365183;22;20766;-50
2021/08/24 21:28:32;;;;;;;4.80;3.53;;;;;;;;;;6337346;22;20335;-50
2021/08/24 21:31:00;;;;;;;5.78;3.50;;;;;;;;;;6365467;22;20354;-50
2021/08/24 21:33:27;;;;;;;4.95;3.50;;;;;;;;;;6365086;22;20465;-51
2021/08/24 21:35:59;;;;;;;4.63;3.33;;;;;;;;;;6365785;22;20333;-51
2021/08/24 21:38:29;;;;;;;4.60;3.50;;;;;;;;;;6365232;22;20358;-50
2021/08/24 21:41:00;;;;;;;4.18;3.08;;;;;;;;;;6364642;22;20446;-54
2021/08/24 21:43:27;;;;;;;8.98;4.15;;;;;;;;;;6336594;22;20339;-50